Time;durP1;ratioP1;P1;durP2;ratioP2;P2;SDS_P1;SDS_P2;PMS_P1;PMS_P2;Temp;Humidity;BMP_temperature;BMP_pressure;BME280_temperature;BME280_humidity;BME280_pressure;Samples;Min_cycle;Max_cycle;Signal;HPM_P1;HPM_P2
2022/12/10 00:01:31;;;;;;;6.57;5.88;;;20.30;58.50;;;;;;5056600;27;92713;-83
2022/12/10 00:03:57;;;;;;;7.85;6.00;;;20.30;58.40;;;;;;5051129;27;93927;-84
2022/12/10 00:06:26;;;;;;;7.72;6.25;;;20.30;58.80;;;;;;5053487;27;92577;-83
2022/12/10 00:08:52;;;;;;;8.47;6.57;;;20.20;58.60;;;;;;5056095;27;93259;-84
2022/12/10 00:11:19;;;;;;;9.23;6.43;;;20.20;58.70;;;;;;5050331;27;92604;-85
2022/12/10 00:13:46;;;;;;;7.18;5.60;;;20.20;58.80;;;;;;5053314;27;92617;-85
2022/12/10 00:16:13;;;;;;;7.35;5.78;;;20.20;58.60;;;;;;5054539;27;92491;-84
2022/12/10 00:18:39;;;;;;;8.80;6.25;;;20.10;58.60;;;;;;5052605;27;92938;-83
2022/12/10 00:21:09;;;;;;;7.80;5.90;;;20.10;58.60;;;;;;5054103;27;93198;-86
2022/12/10 00:23:35;;;;;;;7.55;5.22;;;20.10;58.50;;;;;;5052499;27;92366;-85
2022/12/10 00:26:15;;;;;;;7.72;6.32;;;20.10;58.60;;;;;;5053178;27;92229;-85
2022/12/10 00:28:40;;;;;;;;;;;20.00;58.80;;;;;;5053515;27;94277;-83
2022/12/10 00:31:09;;;;;;;8.23;6.50;;;20.10;58.80;;;;;;5054147;27;99051;-86
2022/12/10 00:33:35;;;;;;;8.57;6.10;;;20.00;58.80;;;;;;5051926;27;92640;-85
2022/12/10 00:36:13;;;;;;;7.20;6.25;;;20.00;58.70;;;;;;5051024;27;92575;-84
2022/12/10 00:38:40;;;;;;;8.38;5.97;;;20.00;58.80;;;;;;5052885;27;93101;-84
2022/12/10 00:41:06;;;;;;;7.45;5.95;;;20.00;59.40;;;;;;5049354;27;93197;-83
2022/12/10 00:43:31;;;;;;;6.85;5.65;;;20.00;58.80;;;;;;5053979;27;91993;-83
2022/12/10 00:45:57;;;;;;;6.38;5.75;;;20.00;58.70;;;;;;5050072;27;91629;-86
2022/12/10 00:48:23;;;;;;;8.77;5.82;;;19.90;58.80;;;;;;5051910;27;98876;-85
2022/12/10 00:50:56;;;;;;;6.68;5.95;;;19.90;58.70;;;;;;5053134;27;92427;-84
2022/12/10 00:53:23;;;;;;;7.28;6.50;;;19.90;58.70;;;;;;5050818;27;92992;-84
2022/12/10 00:55:48;;;;;;;6.25;5.65;;;19.90;58.70;;;;;;5053310;27;92096;-84
2022/12/10 00:58:14;;;;;;;7.05;6.35;;;19.90;58.70;;;;;;5055487;27;92564;-87
2022/12/10 01:00:39;;;;;;;6.68;6.00;;;19.90;58.80;;;;;;5054299;27;92792;-85
2022/12/10 01:03:05;;;;;;;7.40;6.07;;;19.80;58.70;;;;;;5053064;27;92644;-83
2022/12/10 01:05:31;;;;;;;7.75;6.05;;;19.80;58.60;;;;;;5054137;27;92069;-85
2022/12/10 01:07:56;;;;;;;7.15;6.07;;;19.80;58.70;;;;;;5053404;27;92628;-84
2022/12/10 01:10:22;;;;;;;7.25;5.93;;;19.80;58.60;;;;;;5036792;27;96224;-83
2022/12/10 01:12:48;;;;;;;5.95;5.35;;;19.80;58.60;;;;;;5053222;27;92004;-85
2022/12/10 01:15:13;;;;;;;6.88;5.93;;;19.80;59.40;;;;;;5052172;27;92572;-83
2022/12/10 01:17:39;;;;;;;6.28;5.60;;;19.70;58.80;;;;;;5050178;27;93865;-86
2022/12/10 01:20:05;;;;;;;6.88;6.07;;;19.70;58.80;;;;;;5052735;27;93805;-85
2022/12/10 01:22:31;;;;;;;6.40;5.40;;;19.70;58.60;;;;;;5053091;27;92694;-85
2022/12/10 01:24:56;;;;;;;6.75;5.75;;;19.70;58.60;;;;;;5039363;27;92423;-85
2022/12/10 01:27:22;;;;;;;8.88;6.40;;;19.70;58.70;;;;;;5055198;27;93521;-83
2022/12/10 01:29:47;;;;;;;7.50;5.88;;;19.70;58.70;;;;;;5057487;27;93253;-85
2022/12/10 01:32:13;;;;;;;6.53;5.88;;;19.60;58.60;;;;;;5056169;27;92494;-85
2022/12/10 01:34:39;;;;;;;7.53;6.20;;;19.60;58.60;;;;;;5058212;27;91842;-86
2022/12/10 01:37:04;;;;;;;7.07;5.68;;;19.60;58.70;;;;;;5055835;27;94482;-85
2022/12/10 01:39:30;;;;;;;6.25;5.60;;;19.60;58.50;;;;;;5055130;27;92959;-85
2022/12/10 01:41:58;;;;;;;6.32;5.60;;;19.60;58.40;;;;;;5057637;27;94714;-85
2022/12/10 01:44:23;;;;;;;6.30;5.70;;;19.60;58.70;;;;;;5055079;27;92094;-86
2022/12/10 01:46:55;;;;;;;7.82;6.32;;;19.60;58.80;;;;;;5054258;27;93350;-84
2022/12/10 01:49:32;;;;;;;6.80;6.10;;;19.60;58.80;;;;;;5057464;27;92351;-83
2022/12/10 01:51:58;;;;;;;7.03;6.25;;;19.50;58.80;;;;;;5057559;27;92533;-86
2022/12/10 01:54:30;;;;;;;7.50;6.22;;;19.50;59.20;;;;;;5054827;27;93308;-85
2022/12/10 01:57:10;;;;;;;8.70;6.13;;;19.50;58.70;;;;;;5056397;27;93316;-85
2022/12/10 01:59:37;;;;;;;6.85;5.50;;;19.50;58.50;;;;;;5056833;27;94406;-85
2022/12/10 02:02:06;;;;;;;7.85;6.10;;;19.50;58.50;;;;;;5053305;27;92478;-86
2022/12/10 02:05:05;;;;;;;7.75;5.93;;;19.50;58.60;;;;;;5056044;27;92498;-83
2022/12/10 02:07:59;;;;;;;8.07;5.82;;;19.40;58.50;;;;;;5036776;27;101764;-85
2022/12/10 02:10:40;;;;;;;6.25;5.60;;;19.40;58.50;;;;;;5052360;27;98576;-84
2022/12/10 02:13:19;;;;;;;6.07;5.47;;;19.50;58.70;;;;;;5057539;27;92023;-86
2022/12/10 02:15:52;;;;;;;6.65;5.60;;;19.40;58.50;;;;;;5057577;27;92540;-84
2022/12/10 02:18:35;;;;;;;6.97;5.35;;;19.40;58.60;;;;;;5055330;27;93510;-84
2022/12/10 02:21:07;;;;;;;7.40;5.97;;;19.40;58.50;;;;;;5058009;27;93181;-86
2022/12/10 02:23:42;;;;;;;6.35;5.75;;;19.40;58.50;;;;;;5057104;27;92273;-84
2022/12/10 02:26:22;;;;;;;7.82;6.47;;;19.30;58.50;;;;;;5056254;27;92567;-86
2022/12/10 02:29:11;;;;;;;6.18;5.57;;;19.30;58.60;;;;;;5053086;27;93159;-84
2022/12/10 02:31:40;;;;;;;7.03;6.17;;;19.30;58.40;;;;;;5056055;27;93006;-83
2022/12/10 02:34:08;;;;;;;6.20;5.60;;;19.30;58.50;;;;;;5055291;27;93276;-83
2022/12/10 02:36:37;;;;;;;6.35;5.70;;;19.30;58.60;;;;;;5057110;27;92885;-82
2022/12/10 02:39:08;;;;;;;9.13;5.63;;;19.30;58.50;;;;;;5054770;27;93455;-86
2022/12/10 02:41:37;;;;;;;6.80;5.68;;;19.30;58.60;;;;;;5052943;27;92493;-85
2022/12/10 02:44:07;;;;;;;6.65;5.93;;;19.30;58.50;;;;;;5054716;27;92028;-83
2022/12/10 02:46:34;;;;;;;7.28;5.85;;;19.30;58.50;;;;;;5054800;27;92530;-84
2022/12/10 02:49:03;;;;;;;6.50;5.85;;;19.30;58.60;;;;;;5052932;27;92554;-84
2022/12/10 02:51:29;;;;;;;6.28;5.68;;;19.30;58.50;;;;;;5053393;27;93460;-85
2022/12/10 02:54:05;;;;;;;6.40;5.78;;;19.20;58.60;;;;;;5056891;27;92852;-83
2022/12/10 02:56:54;;;;;;;7.28;5.82;;;19.20;58.50;;;;;;5054565;27;92741;-84
2022/12/10 02:59:35;;;;;;;7.55;6.45;;;19.20;58.50;;;;;;5054337;27;94195;-85
2022/12/10 03:02:19;;;;;;;6.30;5.70;;;19.20;58.50;;;;;;5055311;27;94237;-85
2022/12/10 03:04:45;;;;;;;7.03;6.28;;;19.20;58.50;;;;;;5054772;27;92643;-85
2022/12/10 03:07:17;;;;;;;7.72;6.30;;;19.20;58.40;;;;;;5056193;27;92573;-84
2022/12/10 03:09:53;;;;;;;6.38;5.38;;;19.10;58.40;;;;;;5055395;27;93201;-85
2022/12/10 03:12:28;;;;;;;7.03;5.75;;;19.10;58.70;;;;;;5052711;27;93686;-84
2022/12/10 03:14:59;;;;;;;6.05;5.40;;;19.10;58.60;;;;;;5058197;27;92666;-85
2022/12/10 03:17:28;;;;;;;6.22;5.50;;;19.10;58.50;;;;;;5053796;27;91973;-84
2022/12/10 03:19:57;;;;;;;6.32;5.72;;;19.10;58.70;;;;;;5050896;27;93122;-84
2022/12/10 03:22:23;;;;;;;6.22;5.57;;;19.10;58.50;;;;;;5056316;27;92722;-83
2022/12/10 03:24:49;;;;;;;6.50;5.80;;;19.10;58.60;;;;;;5053661;27;93251;-84
2022/12/10 03:27:18;;;;;;;6.88;6.00;;;19.00;58.60;;;;;;5052729;27;91984;-85
2022/12/10 03:29:56;;;;;;;5.50;5.00;;;19.10;58.60;;;;;;5051773;27;92564;-84
2022/12/10 03:32:24;;;;;;;6.38;5.78;;;19.00;58.80;;;;;;5053597;27;94761;-85
2022/12/10 03:34:53;;;;;;;6.78;5.88;;;19.00;58.80;;;;;;5052625;27;92386;-85
2022/12/10 03:37:19;;;;;;;6.63;5.95;;;19.00;58.80;;;;;;5055211;27;92384;-84
2022/12/10 03:39:45;;;;;;;7.05;5.90;;;19.00;58.60;;;;;;5053644;27;93077;-83
2022/12/10 03:42:11;;;;;;;5.68;5.00;;;19.00;58.60;;;;;;5034934;27;95980;-85
2022/12/10 03:44:40;;;;;;;6.75;6.07;;;19.00;58.60;;;;;;5051999;27;92151;-85
2022/12/10 03:47:08;;;;;;;6.93;5.95;;;19.00;58.60;;;;;;5050802;27;92576;-85
2022/12/10 03:49:34;;;;;;;6.72;6.00;;;19.00;58.60;;;;;;5050884;27;95059;-84
2022/12/10 03:52:00;;;;;;;6.35;5.38;;;19.00;58.60;;;;;;5053123;27;93715;-84
2022/12/10 03:54:26;;;;;;;6.40;5.80;;;19.00;58.60;;;;;;5056586;27;92509;-84
2022/12/10 03:56:51;;;;;;;6.10;5.50;;;18.90;58.60;;;;;;5055759;27;92582;-84
2022/12/10 03:59:17;;;;;;;5.85;5.25;;;18.90;58.60;;;;;;5055154;27;93269;-85
2022/12/10 04:01:43;;;;;;;6.75;5.82;;;18.90;58.70;;;;;;5055266;27;93262;-84
2022/12/10 04:04:08;;;;;;;5.95;5.35;;;18.90;58.50;;;;;;5053079;27;92338;-84
2022/12/10 04:06:37;;;;;;;6.32;5.53;;;18.90;58.50;;;;;;5055989;27;92055;-83
2022/12/10 04:09:02;;;;;;;6.65;5.95;;;18.90;58.60;;;;;;5055524;27;92715;-84
2022/12/10 04:11:28;;;;;;;6.65;5.70;;;18.90;58.60;;;;;;5051027;27;94067;-86
2022/12/10 04:16:38;;;;;;;6.85;5.68;;;18.90;58.60;;;;;;5054998;27;92056;-86
2022/12/10 04:19:12;;;;;;;6.68;5.75;;;18.80;58.40;;;;;;5053482;27;93118;-85
2022/12/10 04:27:16;;;;;;;6.85;6.15;;;18.80;58.50;;;;;;5053393;27;92541;-85
2022/12/10 04:29:41;;;;;;;6.57;5.88;;;18.80;58.50;;;;;;5053995;27;93527;-84
2022/12/10 04:32:07;;;;;;;7.43;5.97;;;18.80;58.40;;;;;;5055547;27;93262;-85
2022/12/10 04:34:33;;;;;;;6.65;5.97;;;18.80;58.50;;;;;;5054176;27;92620;-85
2022/12/10 04:37:00;;;;;;;6.38;5.43;;;18.70;58.40;;;;;;5050206;27;92049;-82
2022/12/10 04:39:26;;;;;;;5.82;5.22;;;18.80;58.60;;;;;;5053073;27;93492;-82
2022/12/10 04:41:52;;;;;;;6.10;5.50;;;18.70;58.40;;;;;;5054283;27;93175;-81
2022/12/10 04:44:18;;;;;;;5.88;5.35;;;18.70;58.30;;;;;;5052292;27;92639;-81
2022/12/10 04:46:44;;;;;;;6.15;5.53;;;18.70;58.40;;;;;;5050658;27;92405;-82
2022/12/10 04:49:10;;;;;;;6.78;5.93;;;18.70;58.40;;;;;;5053691;27;93638;-82
2022/12/10 04:51:36;;;;;;;7.13;5.68;;;18.70;58.40;;;;;;5053961;27;92842;-82
2022/12/10 04:54:02;;;;;;;6.22;5.63;;;18.70;58.50;;;;;;5052361;27;92477;-80
2022/12/10 04:56:27;;;;;;;7.00;6.20;;;18.70;58.40;;;;;;5054457;27;92160;-80
2022/12/10 04:58:55;;;;;;;6.22;5.63;;;18.70;58.60;;;;;;5051988;27;93367;-82
2022/12/10 05:01:21;;;;;;;6.65;5.22;;;18.70;58.60;;;;;;5054530;27;93169;-82
2022/12/10 05:03:47;;;;;;;6.35;5.75;;;18.70;58.60;;;;;;5053026;27;93148;-83
2022/12/10 05:06:14;;;;;;;6.57;5.80;;;18.70;58.40;;;;;;5038290;27;92735;-82
2022/12/10 05:08:41;;;;;;;5.93;5.38;;;18.70;58.30;;;;;;5052852;27;93774;-81
2022/12/10 05:11:11;;;;;;;7.40;6.00;;;18.70;58.30;;;;;;5053571;27;92869;-80
2022/12/10 05:13:37;;;;;;;6.75;6.05;;;18.70;58.40;;;;;;5055679;27;92918;-82
2022/12/10 05:16:05;;;;;;;6.43;5.72;;;18.60;58.30;;;;;;5047390;27;92839;-81
2022/12/10 05:18:32;;;;;;;6.80;5.97;;;18.60;58.30;;;;;;5052407;27;93251;-82
2022/12/10 05:21:01;;;;;;;5.82;5.32;;;18.60;58.40;;;;;;5050590;27;92895;-81
2022/12/10 05:23:28;;;;;;;6.28;5.32;;;18.60;58.30;;;;;;5053624;27;92591;-79
2022/12/10 05:26:02;;;;;;;6.65;5.88;;;18.60;58.40;;;;;;5053379;27;92518;-83
2022/12/10 05:28:29;;;;;;;5.97;5.45;;;18.60;58.50;;;;;;5050817;27;94665;-82
2022/12/10 05:30:55;;;;;;;7.05;5.90;;;18.60;58.60;;;;;;5052768;27;96774;-81
2022/12/10 05:33:21;;;;;;;6.70;6.00;;;18.60;58.50;;;;;;5055162;27;92121;-82
2022/12/10 05:35:58;;;;;;;6.28;5.68;;;18.50;58.50;;;;;;5053121;27;91987;-81
2022/12/10 05:38:25;;;;;;;6.50;5.80;;;18.60;58.50;;;;;;5051053;27;93345;-82
2022/12/10 05:40:51;;;;;;;7.85;6.30;;;18.50;58.50;;;;;;5052777;27;93013;-81
2022/12/10 05:43:17;;;;;;;6.80;5.93;;;18.50;58.60;;;;;;5053678;27;92785;-81
2022/12/10 05:45:42;;;;;;;6.80;6.10;;;18.50;58.60;;;;;;5052786;27;91880;-81
2022/12/10 05:48:10;;;;;;;6.80;5.95;;;18.50;58.50;;;;;;5048985;27;94558;-83
2022/12/10 05:50:36;;;;;;;6.90;5.97;;;18.50;58.40;;;;;;5048247;27;93133;-82
2022/12/10 05:53:02;;;;;;;6.90;6.10;;;18.50;58.20;;;;;;5050113;27;93132;-83
2022/12/10 05:55:28;;;;;;;6.47;5.35;;;18.50;58.30;;;;;;5053643;27;92475;-83
2022/12/10 05:57:55;;;;;;;6.28;5.65;;;18.50;58.40;;;;;;5051616;27;93465;-82
2022/12/10 06:00:23;;;;;;;6.55;5.82;;;18.50;58.40;;;;;;5049801;27;93230;-80
2022/12/10 06:02:49;;;;;;;5.75;5.00;;;18.50;58.50;;;;;;5051337;27;92696;-81
2022/12/10 06:05:15;;;;;;;5.95;5.35;;;18.50;58.30;;;;;;5048560;27;92083;-83
2022/12/10 06:07:41;;;;;;;6.28;5.43;;;18.50;58.30;;;;;;5050740;27;94270;-81
2022/12/10 06:10:07;;;;;;;7.28;5.90;;;18.50;58.40;;;;;;5052942;27;97258;-82
2022/12/10 06:12:33;;;;;;;7.00;6.03;;;18.50;58.30;;;;;;5056465;27;92768;-81
2022/12/10 06:14:58;;;;;;;7.38;6.05;;;18.50;58.90;;;;;;5057531;27;91961;-81
2022/12/10 06:17:24;;;;;;;6.43;5.82;;;18.50;59.00;;;;;;5056081;27;94580;-81
2022/12/10 06:19:50;;;;;;;6.13;5.53;;;18.50;58.20;;;;;;5053722;27;94156;-83
2022/12/10 06:22:15;;;;;;;6.38;5.57;;;18.50;58.30;;;;;;5059015;27;92464;-83
2022/12/10 06:24:41;;;;;;;6.90;5.97;;;18.50;58.30;;;;;;5055243;27;92272;-82
2022/12/10 06:27:07;;;;;;;6.53;5.93;;;18.40;58.30;;;;;;5055339;27;92397;-82
2022/12/10 06:29:32;;;;;;;6.65;5.72;;;18.40;58.30;;;;;;5057737;27;92992;-80
2022/12/10 06:31:58;;;;;;;6.15;5.15;;;18.40;58.30;;;;;;5055754;27;92116;-82
2022/12/10 06:34:23;;;;;;;6.30;5.70;;;18.40;58.10;;;;;;5054947;27;91263;-83
2022/12/10 06:36:49;;;;;;;7.18;5.97;;;18.40;58.30;;;;;;5056760;27;92697;-81
2022/12/10 06:39:15;;;;;;;6.07;5.45;;;18.60;57.90;;;;;;5055621;27;92642;-82
2022/12/10 06:41:43;;;;;;;7.05;6.35;;;18.50;57.80;;;;;;5050788;27;93040;-80
2022/12/10 06:44:10;;;;;;;6.63;5.97;;;18.50;57.50;;;;;;5055253;27;92234;-81
2022/12/10 06:46:36;;;;;;;7.03;6.32;;;18.60;57.40;;;;;;5055003;27;93301;-83
2022/12/10 06:49:02;;;;;;;7.57;5.82;;;18.70;57.50;;;;;;5053586;27;92635;-80
2022/12/10 06:51:28;;;;;;;7.25;6.55;;;18.90;57.80;;;;;;5052903;27;92518;-81
2022/12/10 06:53:54;;;;;;;7.15;6.22;;;19.00;57.90;;;;;;5053430;27;92598;-83
2022/12/10 06:56:20;;;;;;;11.73;6.32;;;19.10;57.70;;;;;;5053507;27;93589;-83
2022/12/10 06:58:46;;;;;;;8.50;6.32;;;19.30;56.20;;;;;;5052866;27;94594;-81
2022/12/10 07:01:16;;;;;;;7.68;6.32;;;19.30;55.40;;;;;;5055543;27;92838;-82
2022/12/10 07:03:42;;;;;;;6.63;5.70;;;19.40;55.60;;;;;;5055500;27;92965;-81
2022/12/10 07:06:11;;;;;;;6.80;5.43;;;19.50;54.90;;;;;;5054179;27;94202;-81
2022/12/10 07:08:37;;;;;;;6.70;5.85;;;19.60;55.10;;;;;;5051574;27;94884;-82
2022/12/10 07:11:04;;;;;;;7.28;6.00;;;19.70;54.80;;;;;;5053503;27;92666;-81
2022/12/10 07:13:30;;;;;;;6.93;5.65;;;19.70;54.20;;;;;;5056928;27;92938;-83
2022/12/10 07:15:56;;;;;;;7.88;6.15;;;19.70;54.00;;;;;;5054455;27;92725;-84
2022/12/10 07:18:21;;;;;;;8.00;6.32;;;19.70;53.70;;;;;;5056131;27;92362;-83
2022/12/10 07:20:47;;;;;;;8.98;6.10;;;19.70;53.30;;;;;;5053520;27;92624;-83
2022/12/10 07:23:13;;;;;;;8.52;6.03;;;19.60;53.20;;;;;;5050688;27;91732;-83
2022/12/10 07:25:38;;;;;;;12.15;5.47;;;19.60;53.40;;;;;;5053764;27;93217;-80
2022/12/10 07:28:04;;;;;;;9.88;5.55;;;19.60;53.10;;;;;;5056257;27;92237;-81
2022/12/10 07:30:29;;;;;;;10.57;6.30;;;19.60;53.10;;;;;;5051932;27;93441;-81
2022/12/10 07:32:55;;;;;;;15.15;7.03;;;19.70;53.50;;;;;;5059500;27;92666;-82
2022/12/10 07:35:20;;;;;;;7.82;5.88;;;19.70;53.70;;;;;;5055646;27;92594;-83
2022/12/10 07:37:46;;;;;;;8.27;5.47;;;19.70;53.80;;;;;;5054620;27;93231;-84
2022/12/10 07:40:12;;;;;;;9.82;5.70;;;19.70;54.00;;;;;;5054651;27;92356;-82
2022/12/10 07:42:37;;;;;;;7.45;5.90;;;19.80;54.20;;;;;;5052488;27;92072;-82
2022/12/10 07:45:03;;;;;;;16.15;6.43;;;19.90;54.10;;;;;;5052147;27;93546;-82
2022/12/10 07:47:29;;;;;;;14.43;7.10;;;19.90;54.10;;;;;;5054609;27;93088;-84
2022/12/10 07:49:54;;;;;;;15.80;6.70;;;20.10;54.40;;;;;;5052708;27;92608;-82
2022/12/10 07:52:20;;;;;;;16.63;6.78;;;20.10;54.40;;;;;;5054858;27;92917;-83
2022/12/10 07:54:46;;;;;;;16.60;7.10;;;20.20;54.40;;;;;;5053835;27;93551;-81
2022/12/10 07:57:11;;;;;;;16.55;7.35;;;20.30;54.40;;;;;;5054553;27;94209;-83
2022/12/10 07:59:37;;;;;;;13.10;6.70;;;20.40;54.30;;;;;;5054828;27;93075;-83
2022/12/10 08:02:03;;;;;;;16.00;7.55;;;20.40;54.40;;;;;;5052268;27;92519;-83
2022/12/10 08:04:32;;;;;;;19.33;8.43;;;20.50;54.20;;;;;;5053273;27;93855;-81
2022/12/10 08:06:58;;;;;;;14.90;7.47;;;20.50;54.00;;;;;;5058370;27;93102;-82
2022/12/10 08:09:23;;;;;;;21.73;8.35;;;20.60;54.10;;;;;;5056341;27;92902;-83
2022/12/10 08:11:49;;;;;;;15.32;6.95;;;20.60;54.00;;;;;;5053167;27;91866;-82
2022/12/10 08:14:14;;;;;;;21.38;7.68;;;20.60;54.00;;;;;;5053839;27;93106;-83
2022/12/10 08:16:40;;;;;;;19.50;7.65;;;20.60;54.10;;;;;;5053772;27;92535;-83
2022/12/10 08:19:06;;;;;;;18.40;7.72;;;20.60;54.10;;;;;;5054145;27;93339;-83
2022/12/10 08:21:33;;;;;;;21.00;8.73;;;20.50;54.40;;;;;;5055425;27;92509;-81
2022/12/10 08:24:00;;;;;;;22.90;8.30;;;20.50;54.60;;;;;;5051719;27;93428;-81
2022/12/10 08:26:29;;;;;;;21.42;8.55;;;20.50;54.40;;;;;;5054526;27;93184;-81
2022/12/10 08:28:55;;;;;;;19.23;8.13;;;20.60;54.40;;;;;;5055466;27;92650;-81
2022/12/10 08:31:22;;;;;;;15.70;7.40;;;20.60;54.60;;;;;;5055977;27;93131;-82
2022/12/10 08:33:48;;;;;;;23.00;7.75;;;20.60;54.80;;;;;;5050316;27;92480;-84
2022/12/10 08:36:15;;;;;;;19.30;8.05;;;20.70;53.90;;;;;;5038806;27;92816;-83
2022/12/10 08:38:41;;;;;;;16.15;8.07;;;20.80;54.50;;;;;;5052194;27;92909;-83
2022/12/10 08:41:19;;;;;;;24.83;8.32;;;20.90;54.40;;;;;;5052187;27;92525;-83
2022/12/10 08:43:45;;;;;;;15.82;7.78;;;21.00;53.10;;;;;;5053367;27;93552;-84
2022/12/10 08:46:13;;;;;;;15.25;7.47;;;21.00;54.00;;;;;;5052330;27;95329;-84
2022/12/10 08:48:39;;;;;;;19.08;6.72;;;21.10;54.20;;;;;;5053706;27;92764;-83
2022/12/10 08:51:06;;;;;;;16.92;7.30;;;21.10;54.30;;;;;;5034443;27;92569;-80
2022/12/10 08:53:32;;;;;;;17.15;7.38;;;21.10;54.30;;;;;;5049873;27;93078;-82
2022/12/10 08:55:58;;;;;;;19.55;7.97;;;21.10;54.40;;;;;;5051507;27;92388;-82
2022/12/10 08:58:23;;;;;;;16.90;7.03;;;21.10;54.50;;;;;;5053173;27;92588;-81
2022/12/10 09:00:49;;;;;;;22.05;8.90;;;21.20;55.10;;;;;;5053659;27;91379;-83
2022/12/10 09:03:16;;;;;;;13.68;7.45;;;21.20;54.50;;;;;;5052049;27;93169;-81
2022/12/10 09:05:42;;;;;;;19.23;7.55;;;21.10;54.90;;;;;;5051157;27;92830;-82
2022/12/10 09:08:07;;;;;;;19.05;7.60;;;21.10;55.00;;;;;;5053609;27;93096;-82
2022/12/10 09:10:35;;;;;;;17.75;8.80;;;21.10;55.20;;;;;;5052753;27;92039;-82
2022/12/10 09:13:00;;;;;;;25.10;8.50;;;21.10;55.20;;;;;;5035502;27;95972;-81
2022/12/10 09:15:26;;;;;;;15.02;7.40;;;21.00;55.30;;;;;;5050756;27;93241;-83
2022/12/10 09:17:51;;;;;;;18.83;8.05;;;21.00;55.50;;;;;;5053299;27;92685;-81
2022/12/10 09:20:17;;;;;;;20.05;8.18;;;21.10;55.80;;;;;;5049706;27;93424;-83
2022/12/10 09:22:43;;;;;;;23.95;8.32;;;21.10;55.80;;;;;;5049199;27;95205;-83
2022/12/10 09:25:15;;;;;;;20.75;7.75;;;21.10;56.00;;;;;;5054357;27;92732;-81
2022/12/10 09:27:41;;;;;;;20.40;8.57;;;21.00;56.00;;;;;;5051763;27;92824;-82
2022/12/10 09:30:07;;;;;;;19.05;8.13;;;21.00;56.00;;;;;;5053111;27;92310;-82
2022/12/10 09:32:33;;;;;;;20.08;7.25;;;21.00;56.40;;;;;;5051836;27;94801;-81
2022/12/10 09:34:59;;;;;;;21.05;7.57;;;21.10;55.60;;;;;;5048793;27;93958;-82
2022/12/10 09:37:24;;;;;;;21.05;8.00;;;21.20;55.30;;;;;;5050048;27;92946;-82
2022/12/10 09:39:50;;;;;;;15.93;7.30;;;21.20;55.40;;;;;;5051228;27;92504;-83
2022/12/10 09:42:16;;;;;;;16.55;7.25;;;21.30;55.50;;;;;;5053102;27;93237;-82
2022/12/10 09:45:02;;;;;;;17.27;9.43;;;21.30;55.70;;;;;;5031492;27;96510;-84
2022/12/10 09:47:51;;;;;;;24.20;9.98;;;21.20;55.00;;;;;;5056313;27;92299;-85
2022/12/10 09:50:58;;;;;;;13.02;7.38;;;21.20;54.40;;;;;;5054534;27;91682;-81
2022/12/10 09:53:26;;;;;;;18.10;9.07;;;21.30;54.90;;;;;;4962567;28;93470;-82
2022/12/10 09:55:52;;;;;;;22.45;10.85;;;21.30;52.80;;;;;;4962520;28;93300;-82
2022/12/10 09:58:22;;;;;;;24.55;10.73;;;21.30;52.20;;;;;;4962340;28;93128;-83
2022/12/10 10:00:53;;;;;;;25.60;11.15;;;21.30;52.20;;;;;;4962946;28;92410;-82
2022/12/10 10:03:19;;;;;;;29.33;12.13;;;21.30;52.40;;;;;;4961273;28;93456;-83
2022/12/10 10:05:51;;;;;;;72.78;26.38;;;21.30;52.50;;;;;;4961660;28;92606;-82
2022/12/10 10:08:19;;;;;;;93.18;34.78;;;21.20;51.90;;;;;;4962648;28;92573;-84
2022/12/10 10:10:45;;;;;;;76.65;28.20;;;21.20;51.70;;;;;;4962398;28;92401;-83
2022/12/10 10:13:18;;;;;;;55.50;19.55;;;21.20;51.80;;;;;;4962571;28;92823;-83
2022/12/10 10:15:45;;;;;;;44.90;17.55;;;21.20;52.30;;;;;;4960630;28;94192;-82
2022/12/10 10:18:34;;;;;;;46.80;18.27;;;21.30;52.60;;;;;;4961483;28;99960;-82
2022/12/10 10:21:01;;;;;;;45.77;18.83;;;21.30;52.90;;;;;;4962288;28;93531;-82
2022/12/10 10:23:26;;;;;;;57.42;18.98;;;21.30;53.00;;;;;;4960292;28;94424;-83
2022/12/10 10:25:52;;;;;;;44.90;18.20;;;21.40;53.60;;;;;;4961056;28;93840;-84
2022/12/10 10:28:21;;;;;;;48.15;18.42;;;21.40;53.80;;;;;;4963258;28;92121;-84
2022/12/10 10:30:46;;;;;;;49.33;17.20;;;21.50;53.90;;;;;;5014645;27;93503;-81
2022/12/10 10:33:15;;;;;;;41.05;16.48;;;21.50;54.10;;;;;;5021230;28;93538;-84
2022/12/10 10:35:59;;;;;;;58.05;18.50;;;21.50;54.30;;;;;;5020987;28;93682;-82
2022/12/10 10:38:29;;;;;;;46.42;18.50;;;21.60;54.70;;;;;;5022111;27;93475;-82
2022/12/10 10:40:59;;;;;;;45.40;17.30;;;21.60;54.90;;;;;;5021503;28;92567;-82
2022/12/10 10:43:41;;;;;;;47.75;17.08;;;21.50;55.60;;;;;;5021460;27;95103;-82
2022/12/10 10:46:14;;;;;;;45.63;17.98;;;21.50;54.40;;;;;;5025697;28;97638;-82
2022/12/10 10:48:39;;;;;;;37.50;17.40;;;21.50;54.20;;;;;;5011670;28;94078;-83
2022/12/10 10:51:05;;;;;;;38.85;18.70;;;21.50;53.90;;;;;;4981077;28;92519;-83
2022/12/10 10:53:51;;;;;;;40.45;17.10;;;21.50;53.40;;;;;;4980810;28;94044;-84
2022/12/10 10:56:25;;;;;;;38.53;17.70;;;21.50;54.00;;;;;;4983220;28;92582;-83
2022/12/10 10:59:12;;;;;;;46.45;17.33;;;21.50;53.40;;;;;;4981971;28;92583;-83
2022/12/10 11:01:49;;;;;;;33.67;17.45;;;21.50;53.80;;;;;;4982298;28;92314;-84
2022/12/10 11:04:17;;;;;;;34.92;16.33;;;21.60;54.50;;;;;;4986386;28;97065;-85
2022/12/10 11:06:44;;;;;;;32.80;15.95;;;21.60;54.80;;;;;;4992331;28;92966;-84
2022/12/10 11:09:24;;;;;;;35.42;16.17;;;21.70;55.30;;;;;;4992601;28;92172;-84
2022/12/10 11:11:57;;;;;;;36.92;15.02;;;21.70;55.50;;;;;;4991130;28;92716;-83
2022/12/10 11:14:30;;;;;;;37.35;14.98;;;21.70;56.20;;;;;;4990053;28;94050;-85
2022/12/10 11:17:14;;;;;;;34.08;16.48;;;21.80;55.60;;;;;;4990873;28;93831;-84
2022/12/10 11:19:53;;;;;;;30.60;14.93;;;21.70;55.70;;;;;;4997039;28;92458;-84
2022/12/10 11:22:25;;;;;;;35.83;15.18;;;21.70;55.80;;;;;;5024302;27;92248;-84
2022/12/10 11:24:51;;;;;;;34.78;14.15;;;21.60;56.30;;;;;;5031883;27;93549;-82
2022/12/10 11:27:35;;;;;;;32.67;14.35;;;21.60;56.00;;;;;;5033466;27;92854;-83
2022/12/10 11:30:23;;;;;;;34.08;15.52;;;21.70;55.70;;;;;;5033637;27;92452;-85
2022/12/10 11:33:20;;;;;;;40.50;15.07;;;21.60;56.20;;;;;;5031560;27;91265;-81
2022/12/10 11:36:11;;;;;;;31.80;15.38;;;21.60;56.40;;;;;;5030931;27;100192;-82
2022/12/10 11:38:54;;;;;;;36.38;15.20;;;21.50;56.30;;;;;;5032091;27;93605;-82
2022/12/10 11:41:53;;;;;;;31.65;14.65;;;21.50;56.60;;;;;;5029443;27;93538;-81
2022/12/10 11:44:19;;;;;;;36.40;15.50;;;21.50;56.10;;;;;;4951112;28;92345;-83
2022/12/10 11:46:44;;;;;;;39.75;14.77;;;21.50;56.30;;;;;;4950145;28;93868;-83
2022/12/10 11:49:24;;;;;;;33.92;14.07;;;21.60;56.60;;;;;;4951707;28;93252;-83
2022/12/10 11:52:16;;;;;;;31.15;14.40;;;21.60;56.40;;;;;;4952893;28;92416;-83
2022/12/10 11:55:01;;;;;;;40.05;16.33;;;21.60;56.70;;;;;;4950558;28;92689;-83
2022/12/10 11:57:54;;;;;;;34.10;14.00;;;21.50;56.80;;;;;;4950378;28;93085;-84
2022/12/10 12:00:40;;;;;;;40.00;15.82;;;21.50;57.00;;;;;;4954331;28;93045;-85
2022/12/10 12:03:24;;;;;;;32.28;13.60;;;21.60;57.10;;;;;;4951680;28;92586;-84
2022/12/10 12:06:28;;;;;;;33.88;13.77;;;21.60;56.90;;;;;;4951990;28;92211;-86
2022/12/10 12:09:11;;;;;;;30.92;12.82;;;21.70;56.90;;;;;;4945647;28;94884;-83
2022/12/10 12:11:58;;;;;;;27.98;13.57;;;21.80;57.60;;;;;;4900096;28;94545;-84
2022/12/10 12:15:02;;;;;;;24.73;12.50;;;21.80;56.80;;;;;;4949947;28;92602;-83
2022/12/10 12:17:36;;;;;;;22.15;10.43;;;21.90;56.80;;;;;;4929800;28;92897;-84
2022/12/10 12:20:05;;;;;;;23.05;10.70;;;22.00;57.40;;;;;;4915164;28;96872;-83
2022/12/10 12:22:38;;;;;;;23.33;10.68;;;22.00;57.10;;;;;;4969088;28;92861;-83
2022/12/10 12:25:27;;;;;;;21.13;11.75;;;22.00;56.40;;;;;;4967889;28;92492;-83
2022/12/10 12:28:05;;;;;;;40.10;18.15;;;21.90;55.50;;;;;;4966827;28;91594;-83
2022/12/10 12:30:33;;;;;;;39.08;19.17;;;21.90;55.20;;;;;;4966526;28;92332;-84
2022/12/10 12:33:04;;;;;;;39.45;18.25;;;21.90;54.80;;;;;;4966564;28;93208;-84
2022/12/10 12:35:47;;;;;;;51.47;24.15;;;21.90;53.60;;;;;;4963608;28;93880;-83
2022/12/10 12:38:26;;;;;;;53.97;24.40;;;21.90;54.20;;;;;;4966904;28;92397;-83
2022/12/10 12:41:02;;;;;;;52.47;24.98;;;21.90;54.50;;;;;;4966967;28;92709;-82
2022/12/10 12:43:37;;;;;;;58.13;27.38;;;21.80;54.60;;;;;;4964609;28;92371;-83
2022/12/10 12:46:23;;;;;;;53.72;26.73;;;21.80;54.70;;;;;;4967184;28;92367;-83
2022/12/10 12:49:11;;;;;;;56.88;27.08;;;21.80;55.40;;;;;;4963381;28;92525;-85
2022/12/10 12:51:50;;;;;;;52.80;25.90;;;21.80;55.50;;;;;;4998918;27;94446;-83
2022/12/10 12:54:16;;;;;;;50.28;24.15;;;21.80;55.60;;;;;;5030229;27;93022;-83
2022/12/10 12:56:51;;;;;;;48.33;25.38;;;21.80;55.60;;;;;;5031715;27;92640;-83
2022/12/10 12:59:37;;;;;;;53.63;26.35;;;21.90;55.60;;;;;;5033001;27;92419;-83
2022/12/10 13:02:32;;;;;;;44.70;24.30;;;21.90;55.60;;;;;;5029907;27;94505;-82
2022/12/10 13:07:23;;;;;;;58.83;25.80;;;22.10;55.70;;;;;;5023527;27;92390;-83